createdAt,value
2018-10-09T00:09:24.635Z,47.4
2018-10-09T00:19:38.557Z,46.6
2018-10-09T00:29:51.971Z,46.9
2018-10-09T00:40:06.166Z,46.7
2018-10-09T00:50:20.329Z,46.6
2018-10-09T01:00:34.416Z,46.7
2018-10-09T01:10:48.593Z,46.6
2018-10-09T01:21:01.806Z,46.5
2018-10-09T01:31:15.305Z,46.6
2018-10-09T01:41:29.211Z,46.7
2018-10-09T01:51:42.413Z,46.7
2018-10-09T02:02:27.047Z,46.6
2018-10-09T02:12:40.507Z,46.4
2018-10-09T02:22:53.648Z,46.5
2018-10-09T02:33:38.576Z,46.6
2018-10-09T02:43:49.668Z,46.5
2018-10-09T02:54:01.154Z,46.4
2018-10-09T03:04:14.964Z,46.5
2018-10-09T03:14:26.695Z,46.7
2018-10-09T03:24:40.636Z,46.5
2018-10-09T03:34:53.949Z,46.2
2018-10-09T03:45:07.287Z,46.2
2018-10-09T03:55:24.044Z,46.0
2018-10-09T04:05:37.624Z,45.9
2018-10-09T04:15:51.608Z,46.3
2018-10-09T04:26:05.240Z,45.8
2018-10-09T04:36:19.217Z,46.0
2018-10-09T04:46:32.441Z,46.0
2018-10-09T04:56:45.536Z,45.7
2018-10-09T08:51:44.267Z,43.5
2018-10-09T09:03:17.905Z,40.7
2018-10-09T09:28:01.922Z,37.6
2018-10-09T09:59:40.077Z,34.8
2018-10-09T10:35:25.076Z,29.8
2018-10-09T10:47:07.998Z,30.3
2018-10-09T10:57:24.762Z,30.9
2018-10-09T11:09:45.590Z,32.6
2018-10-09T11:27:19.808Z,33.9
2018-10-09T11:39:59.863Z,33.8
2018-10-09T11:50:18.478Z,34.2
2018-10-09T13:16:46.073Z,30.5
2018-10-09T13:45:49.077Z,35.1
2018-10-09T13:56:12.252Z,36.1
2018-10-09T14:07:17.158Z,36.5
2018-10-09T14:18:30.203Z,37.1
2018-10-09T14:29:52.441Z,37.3
2018-10-09T14:40:59.567Z,36.9
2018-10-09T14:52:42.716Z,36.9
2018-10-09T15:02:58.003Z,36.7
2018-10-09T15:13:12.122Z,36.6
2018-10-09T15:23:25.967Z,36.5
2018-10-09T15:33:37.098Z,36.4
2018-10-09T15:44:22.133Z,37.2
2018-10-09T15:55:07.552Z,37.0
2018-10-09T16:05:21.005Z,37.6
2018-10-09T16:18:00.512Z,38.7
2018-10-09T16:28:14.954Z,39.5
2018-10-09T16:38:29.073Z,40.5
2018-10-09T16:48:43.335Z,41.1
2018-10-09T16:58:57.378Z,41.9
2018-10-09T17:09:11.972Z,42.3
2018-10-09T17:20:26.194Z,42.7
2018-10-09T17:42:50.693Z,43.5
2018-10-09T17:54:36.695Z,44.1
2018-10-09T18:05:51.157Z,44.5
2018-10-09T20:50:43.456Z,45.2
2018-10-09T21:01:03.017Z,45.7
2018-10-09T21:13:09.807Z,46.9
2018-10-09T21:24:21.670Z,47.2
2018-10-09T21:38:30.567Z,49.0
2018-10-09T21:50:48.980Z,48.9
2018-10-09T22:04:06.473Z,49.5
2018-10-09T22:17:29.061Z,49.5
2018-10-09T22:29:20.026Z,49.6
2018-10-09T22:43:20.952Z,49.2
2018-10-09T22:55:45.668Z,49.4
2018-10-09T23:19:30.553Z,49.4
2018-10-09T23:42:33.024Z,49.0
2018-10-09T23:54:30.555Z,49.4
